sensor_id;sensor_type;location;lat;lon;timestamp;temperature;humidity
18103;DHT22;9178;51.120;6.192;2022-08-14T00:01:12;19.10;99.90
18103;DHT22;9178;51.120;6.192;2022-08-14T00:03:40;19.20;99.90
18103;DHT22;9178;51.120;6.192;2022-08-14T00:06:07;19.40;99.90
18103;DHT22;9178;51.120;6.192;2022-08-14T00:08:34;19.40;99.90
18103;DHT22;9178;51.120;6.192;2022-08-14T00:11:04;19.40;99.90
18103;DHT22;9178;51.120;6.192;2022-08-14T00:13:31;19.50;99.80
18103;DHT22;9178;51.120;6.192;2022-08-14T00:15:59;19.50;99.90
18103;DHT22;9178;51.120;6.192;2022-08-14T00:18:27;19.50;99.90
18103;DHT22;9178;51.120;6.192;2022-08-14T00:20:56;19.50;99.90
18103;DHT22;9178;51.120;6.192;2022-08-14T00:23:23;19.50;99.70
18103;DHT22;9178;51.120;6.192;2022-08-14T00:25:52;19.50;98.30
18103;DHT22;9178;51.120;6.192;2022-08-14T00:28:20;19.50;97.80
18103;DHT22;9178;51.120;6.192;2022-08-14T00:30:53;19.60;97.30
18103;DHT22;9178;51.120;6.192;2022-08-14T00:33:22;19.70;96.90
18103;DHT22;9178;51.120;6.192;2022-08-14T00:35:50;19.70;96.40
18103;DHT22;9178;51.120;6.192;2022-08-14T00:38:19;19.70;97.20
18103;DHT22;9178;51.120;6.192;2022-08-14T00:40:47;19.70;97.70
18103;DHT22;9178;51.120;6.192;2022-08-14T00:43:14;19.70;98.00
18103;DHT22;9178;51.120;6.192;2022-08-14T00:45:41;19.70;98.00
18103;DHT22;9178;51.120;6.192;2022-08-14T00:48:10;19.60;98.00
18103;DHT22;9178;51.120;6.192;2022-08-14T00:50:38;19.60;98.00
18103;DHT22;9178;51.120;6.192;2022-08-14T00:53:06;19.60;97.50
18103;DHT22;9178;51.120;6.192;2022-08-14T00:55:36;19.50;97.10
18103;DHT22;9178;51.120;6.192;2022-08-14T00:58:06;19.50;97.10
18103;DHT22;9178;51.120;6.192;2022-08-14T01:00:50;19.50;98.70
18103;DHT22;9178;51.120;6.192;2022-08-14T01:03:22;19.50;99.90
18103;DHT22;9178;51.120;6.192;2022-08-14T01:05:51;19.40;99.90
18103;DHT22;9178;51.120;6.192;2022-08-14T01:08:20;19.40;99.70
18103;DHT22;9178;51.120;6.192;2022-08-14T01:10:49;19.30;99.40
18103;DHT22;9178;51.120;6.192;2022-08-14T01:13:18;19.30;99.30
18103;DHT22;9178;51.120;6.192;2022-08-14T01:15:47;19.40;99.20
18103;DHT22;9178;51.120;6.192;2022-08-14T01:18:14;19.50;99.00
18103;DHT22;9178;51.120;6.192;2022-08-14T01:20:59;19.50;98.80
18103;DHT22;9178;51.120;6.192;2022-08-14T01:23:34;19.60;98.90
18103;DHT22;9178;51.120;6.192;2022-08-14T01:26:04;19.70;99.10
18103;DHT22;9178;51.120;6.192;2022-08-14T01:28:32;19.80;99.50
18103;DHT22;9178;51.120;6.192;2022-08-14T01:31:03;19.80;99.90
18103;DHT22;9178;51.120;6.192;2022-08-14T01:33:34;19.70;99.90
18103;DHT22;9178;51.120;6.192;2022-08-14T01:36:07;19.70;99.90
18103;DHT22;9178;51.120;6.192;2022-08-14T01:38:39;19.60;99.90
18103;DHT22;9178;51.120;6.192;2022-08-14T01:41:08;19.50;99.90
18103;DHT22;9178;51.120;6.192;2022-08-14T01:43:43;19.40;99.90
18103;DHT22;9178;51.120;6.192;2022-08-14T01:46:11;19.40;99.90
18103;DHT22;9178;51.120;6.192;2022-08-14T01:48:38;19.30;99.90
18103;DHT22;9178;51.120;6.192;2022-08-14T01:51:10;19.40;99.90
18103;DHT22;9178;51.120;6.192;2022-08-14T01:53:41;19.40;99.90
18103;DHT22;9178;51.120;6.192;2022-08-14T01:56:09;19.40;99.90
18103;DHT22;9178;51.120;6.192;2022-08-14T01:58:36;19.30;99.90
18103;DHT22;9178;51.120;6.192;2022-08-14T02:01:04;19.30;99.90
18103;DHT22;9178;51.120;6.192;2022-08-14T02:03:31;19.20;99.90
18103;DHT22;9178;51.120;6.192;2022-08-14T02:06:05;19.20;99.90
18103;DHT22;9178;51.120;6.192;2022-08-14T02:08:32;19.10;99.90
18103;DHT22;9178;51.120;6.192;2022-08-14T02:11:05;19.10;99.90
18103;DHT22;9178;51.120;6.192;2022-08-14T02:13:52;19.10;99.90
18103;DHT22;9178;51.120;6.192;2022-08-14T02:16:23;19.20;99.90
18103;DHT22;9178;51.120;6.192;2022-08-14T02:18:52;19.30;99.90
18103;DHT22;9178;51.120;6.192;2022-08-14T02:21:20;19.40;99.90
18103;DHT22;9178;51.120;6.192;2022-08-14T02:23:49;19.40;99.90
18103;DHT22;9178;51.120;6.192;2022-08-14T02:26:20;19.50;99.90
18103;DHT22;9178;51.120;6.192;2022-08-14T02:28:49;19.50;99.90
18103;DHT22;9178;51.120;6.192;2022-08-14T02:31:17;19.60;99.90
18103;DHT22;9178;51.120;6.192;2022-08-14T02:33:44;19.50;99.90
18103;DHT22;9178;51.120;6.192;2022-08-14T02:36:13;19.50;99.90
18103;DHT22;9178;51.120;6.192;2022-08-14T02:38:41;19.60;99.90
18103;DHT22;9178;51.120;6.192;2022-08-14T02:41:09;19.60;99.90
18103;DHT22;9178;51.120;6.192;2022-08-14T02:43:39;19.70;99.90
18103;DHT22;9178;51.120;6.192;2022-08-14T02:46:07;19.70;99.90
18103;DHT22;9178;51.120;6.192;2022-08-14T02:48:36;19.70;99.90
18103;DHT22;9178;51.120;6.192;2022-08-14T02:51:06;19.70;99.90
18103;DHT22;9178;51.120;6.192;2022-08-14T02:53:33;19.80;99.90
18103;DHT22;9178;51.120;6.192;2022-08-14T02:56:01;19.80;99.90
18103;DHT22;9178;51.120;6.192;2022-08-14T02:58:29;19.90;99.90
18103;DHT22;9178;51.120;6.192;2022-08-14T03:00:57;19.80;99.90
18103;DHT22;9178;51.120;6.192;2022-08-14T03:03:24;19.80;99.90
18103;DHT22;9178;51.120;6.192;2022-08-14T03:05:52;19.80;99.90
18103;DHT22;9178;51.120;6.192;2022-08-14T03:08:20;19.80;99.90
18103;DHT22;9178;51.120;6.192;2022-08-14T03:10:47;19.90;99.90
18103;DHT22;9178;51.120;6.192;2022-08-14T03:13:14;19.90;99.90
18103;DHT22;9178;51.120;6.192;2022-08-14T03:15:41;19.90;99.90
18103;DHT22;9178;51.120;6.192;2022-08-14T03:18:13;19.90;99.90
18103;DHT22;9178;51.120;6.192;2022-08-14T03:20:40;19.80;99.90
18103;DHT22;9178;51.120;6.192;2022-08-14T03:23:06;19.80;99.90
18103;DHT22;9178;51.120;6.192;2022-08-14T03:25:34;19.80;99.90
18103;DHT22;9178;51.120;6.192;2022-08-14T03:28:02;19.80;99.90
18103;DHT22;9178;51.120;6.192;2022-08-14T03:30:30;19.70;99.90
18103;DHT22;9178;51.120;6.192;2022-08-14T03:32:57;19.70;99.90
18103;DHT22;9178;51.120;6.192;2022-08-14T03:35:27;19.70;99.90
18103;DHT22;9178;51.120;6.192;2022-08-14T03:37:54;19.70;99.90
18103;DHT22;9178;51.120;6.192;2022-08-14T03:40:21;19.70;99.90
18103;DHT22;9178;51.120;6.192;2022-08-14T03:42:49;19.70;99.90
18103;DHT22;9178;51.120;6.192;2022-08-14T03:45:16;19.50;99.90
18103;DHT22;9178;51.120;6.192;2022-08-14T03:47:43;19.50;99.90
18103;DHT22;9178;51.120;6.192;2022-08-14T03:50:10;19.40;99.90
18103;DHT22;9178;51.120;6.192;2022-08-14T03:52:40;19.30;99.90
18103;DHT22;9178;51.120;6.192;2022-08-14T03:55:10;19.20;99.90
18103;DHT22;9178;51.120;6.192;2022-08-14T03:57:38;19.10;99.90
18103;DHT22;9178;51.120;6.192;2022-08-14T04:00:08;19.00;99.90
18103;DHT22;9178;51.120;6.192;2022-08-14T04:02:38;18.90;99.90
18103;DHT22;9178;51.120;6.192;2022-08-14T04:05:06;18.80;99.90
18103;DHT22;9178;51.120;6.192;2022-08-14T04:07:33;18.70;99.90
18103;DHT22;9178;51.120;6.192;2022-08-14T04:10:06;18.70;99.90
18103;DHT22;9178;51.120;6.192;2022-08-14T04:12:33;18.60;99.90
18103;DHT22;9178;51.120;6.192;2022-08-14T04:15:01;18.60;99.90
18103;DHT22;9178;51.120;6.192;2022-08-14T04:17:27;18.50;99.90
18103;DHT22;9178;51.120;6.192;2022-08-14T04:19:54;18.50;99.90
18103;DHT22;9178;51.120;6.192;2022-08-14T04:22:21;18.40;99.90
18103;DHT22;9178;51.120;6.192;2022-08-14T04:24:49;18.40;99.90
18103;DHT22;9178;51.120;6.192;2022-08-14T04:27:19;18.40;99.90
18103;DHT22;9178;51.120;6.192;2022-08-14T04:29:45;18.40;99.90
18103;DHT22;9178;51.120;6.192;2022-08-14T04:32:12;18.30;99.90
18103;DHT22;9178;51.120;6.192;2022-08-14T04:34:40;18.30;99.90
18103;DHT22;9178;51.120;6.192;2022-08-14T04:37:07;18.30;99.90
18103;DHT22;9178;51.120;6.192;2022-08-14T04:39:53;18.30;99.90
18103;DHT22;9178;51.120;6.192;2022-08-14T04:42:39;18.40;99.90
18103;DHT22;9178;51.120;6.192;2022-08-14T04:45:25;18.40;99.90
18103;DHT22;9178;51.120;6.192;2022-08-14T04:47:57;18.50;99.90
18103;DHT22;9178;51.120;6.192;2022-08-14T04:50:39;18.60;99.90
18103;DHT22;9178;51.120;6.192;2022-08-14T04:53:07;18.70;99.90
18103;DHT22;9178;51.120;6.192;2022-08-14T04:55:35;18.70;99.90
18103;DHT22;9178;51.120;6.192;2022-08-14T04:58:04;18.80;99.90
18103;DHT22;9178;51.120;6.192;2022-08-14T05:00:31;18.80;99.90
18103;DHT22;9178;51.120;6.192;2022-08-14T05:02:58;18.80;99.90
18103;DHT22;9178;51.120;6.192;2022-08-14T05:05:28;18.80;99.90
18103;DHT22;9178;51.120;6.192;2022-08-14T05:07:55;18.90;99.90
18103;DHT22;9178;51.120;6.192;2022-08-14T05:10:22;18.90;99.90
18103;DHT22;9178;51.120;6.192;2022-08-14T05:12:51;18.90;99.90
18103;DHT22;9178;51.120;6.192;2022-08-14T05:15:19;19.00;99.90
18103;DHT22;9178;51.120;6.192;2022-08-14T05:17:47;19.00;99.90
18103;DHT22;9178;51.120;6.192;2022-08-14T05:20:14;19.00;99.90
18103;DHT22;9178;51.120;6.192;2022-08-14T05:22:41;19.00;99.90
18103;DHT22;9178;51.120;6.192;2022-08-14T05:25:10;19.10;99.90
18103;DHT22;9178;51.120;6.192;2022-08-14T05:27:37;19.20;99.90
18103;DHT22;9178;51.120;6.192;2022-08-14T05:30:06;19.20;99.90
18103;DHT22;9178;51.120;6.192;2022-08-14T05:32:35;19.30;99.90
18103;DHT22;9178;51.120;6.192;2022-08-14T05:35:03;19.40;99.90
18103;DHT22;9178;51.120;6.192;2022-08-14T05:37:30;19.40;99.90
18103;DHT22;9178;51.120;6.192;2022-08-14T05:39:58;19.40;99.90
18103;DHT22;9178;51.120;6.192;2022-08-14T05:42:26;19.50;99.90
18103;DHT22;9178;51.120;6.192;2022-08-14T05:44:53;19.50;99.90
18103;DHT22;9178;51.120;6.192;2022-08-14T05:47:20;19.60;99.90
18103;DHT22;9178;51.120;6.192;2022-08-14T05:49:49;19.70;99.90
18103;DHT22;9178;51.120;6.192;2022-08-14T05:52:15;19.70;99.90
18103;DHT22;9178;51.120;6.192;2022-08-14T05:54:42;19.90;99.90
18103;DHT22;9178;51.120;6.192;2022-08-14T05:57:09;19.90;99.90
18103;DHT22;9178;51.120;6.192;2022-08-14T05:59:36;20.00;99.90
18103;DHT22;9178;51.120;6.192;2022-08-14T06:02:06;20.10;99.90
18103;DHT22;9178;51.120;6.192;2022-08-14T06:04:33;20.20;99.90
18103;DHT22;9178;51.120;6.192;2022-08-14T06:07:01;20.30;99.90
18103;DHT22;9178;51.120;6.192;2022-08-14T06:09:28;20.40;99.90
18103;DHT22;9178;51.120;6.192;2022-08-14T06:11:55;20.40;99.90
18103;DHT22;9178;51.120;6.192;2022-08-14T06:14:22;20.60;99.90
18103;DHT22;9178;51.120;6.192;2022-08-14T06:16:49;20.70;99.90
18103;DHT22;9178;51.120;6.192;2022-08-14T06:19:16;20.80;99.90
18103;DHT22;9178;51.120;6.192;2022-08-14T06:21:42;20.90;99.90
18103;DHT22;9178;51.120;6.192;2022-08-14T06:24:10;20.90;99.90
18103;DHT22;9178;51.120;6.192;2022-08-14T06:26:37;21.10;99.90
18103;DHT22;9178;51.120;6.192;2022-08-14T06:29:04;21.20;99.90
18103;DHT22;9178;51.120;6.192;2022-08-14T06:31:31;21.30;99.90
18103;DHT22;9178;51.120;6.192;2022-08-14T06:33:58;21.30;99.90
18103;DHT22;9178;51.120;6.192;2022-08-14T06:36:27;21.40;99.90
18103;DHT22;9178;51.120;6.192;2022-08-14T06:38:54;21.50;99.90
18103;DHT22;9178;51.120;6.192;2022-08-14T06:41:22;21.60;99.90
18103;DHT22;9178;51.120;6.192;2022-08-14T06:43:49;21.60;99.90
18103;DHT22;9178;51.120;6.192;2022-08-14T06:46:16;21.70;99.90
18103;DHT22;9178;51.120;6.192;2022-08-14T06:48:43;21.80;99.90
18103;DHT22;9178;51.120;6.192;2022-08-14T06:51:10;21.90;99.90
18103;DHT22;9178;51.120;6.192;2022-08-14T06:53:37;22.00;99.90
18103;DHT22;9178;51.120;6.192;2022-08-14T06:56:04;22.20;99.90
18103;DHT22;9178;51.120;6.192;2022-08-14T06:58:32;22.30;99.90
18103;DHT22;9178;51.120;6.192;2022-08-14T07:00:59;22.40;99.90
18103;DHT22;9178;51.120;6.192;2022-08-14T07:03:44;22.50;99.90
18103;DHT22;9178;51.120;6.192;2022-08-14T07:06:28;22.60;99.90
18103;DHT22;9178;51.120;6.192;2022-08-14T07:08:55;22.60;99.90
18103;DHT22;9178;51.120;6.192;2022-08-14T07:11:22;22.70;99.90
18103;DHT22;9178;51.120;6.192;2022-08-14T07:13:50;22.80;99.90
18103;DHT22;9178;51.120;6.192;2022-08-14T07:16:17;22.90;99.90
18103;DHT22;9178;51.120;6.192;2022-08-14T07:18:44;23.00;99.90
18103;DHT22;9178;51.120;6.192;2022-08-14T07:21:11;23.10;99.90
18103;DHT22;9178;51.120;6.192;2022-08-14T07:23:38;23.20;99.90
18103;DHT22;9178;51.120;6.192;2022-08-14T07:26:05;23.30;99.90
18103;DHT22;9178;51.120;6.192;2022-08-14T07:28:34;23.50;99.90
18103;DHT22;9178;51.120;6.192;2022-08-14T07:31:05;23.90;99.90
18103;DHT22;9178;51.120;6.192;2022-08-14T07:33:38;24.30;99.90
18103;DHT22;9178;51.120;6.192;2022-08-14T07:36:08;24.70;99.90
18103;DHT22;9178;51.120;6.192;2022-08-14T07:38:35;25.00;99.90
18103;DHT22;9178;51.120;6.192;2022-08-14T07:41:06;25.30;99.90
18103;DHT22;9178;51.120;6.192;2022-08-14T07:43:33;25.50;99.90
18103;DHT22;9178;51.120;6.192;2022-08-14T07:46:03;25.70;99.90
18103;DHT22;9178;51.120;6.192;2022-08-14T07:48:30;25.90;99.90
18103;DHT22;9178;51.120;6.192;2022-08-14T07:50:57;26.20;99.90
18103;DHT22;9178;51.120;6.192;2022-08-14T07:53:25;26.40;99.90
18103;DHT22;9178;51.120;6.192;2022-08-14T07:55:52;26.60;99.50
18103;DHT22;9178;51.120;6.192;2022-08-14T07:58:20;26.80;98.50
18103;DHT22;9178;51.120;6.192;2022-08-14T08:00:46;27.00;98.00
18103;DHT22;9178;51.120;6.192;2022-08-14T08:03:15;27.20;97.50
18103;DHT22;9178;51.120;6.192;2022-08-14T08:05:44;27.40;97.60
18103;DHT22;9178;51.120;6.192;2022-08-14T08:08:11;27.60;95.90
18103;DHT22;9178;51.120;6.192;2022-08-14T08:10:40;27.70;96.00
18103;DHT22;9178;51.120;6.192;2022-08-14T08:13:09;28.00;96.60
18103;DHT22;9178;51.120;6.192;2022-08-14T08:15:38;28.30;96.50
18103;DHT22;9178;51.120;6.192;2022-08-14T08:18:07;28.80;94.10
18103;DHT22;9178;51.120;6.192;2022-08-14T08:20:37;29.00;91.90
18103;DHT22;9178;51.120;6.192;2022-08-14T08:23:08;29.10;91.70
18103;DHT22;9178;51.120;6.192;2022-08-14T08:25:37;29.30;92.00
18103;DHT22;9178;51.120;6.192;2022-08-14T08:28:06;29.50;91.60
18103;DHT22;9178;51.120;6.192;2022-08-14T08:30:36;29.60;91.40
18103;DHT22;9178;51.120;6.192;2022-08-14T08:33:04;29.90;91.30
18103;DHT22;9178;51.120;6.192;2022-08-14T08:35:33;30.10;91.10
18103;DHT22;9178;51.120;6.192;2022-08-14T08:38:03;30.30;87.30
18103;DHT22;9178;51.120;6.192;2022-08-14T08:40:33;30.30;87.40
18103;DHT22;9178;51.120;6.192;2022-08-14T08:43:04;30.20;86.20
18103;DHT22;9178;51.120;6.192;2022-08-14T08:45:33;30.30;89.30
18103;DHT22;9178;51.120;6.192;2022-08-14T08:48:00;30.30;82.40
18103;DHT22;9178;51.120;6.192;2022-08-14T08:50:33;30.40;83.90
18103;DHT22;9178;51.120;6.192;2022-08-14T08:53:04;30.50;84.20
18103;DHT22;9178;51.120;6.192;2022-08-14T08:55:34;30.60;80.70
18103;DHT22;9178;51.120;6.192;2022-08-14T08:58:04;30.80;81.10
18103;DHT22;9178;51.120;6.192;2022-08-14T09:00:33;30.90;79.20
18103;DHT22;9178;51.120;6.192;2022-08-14T09:03:03;30.90;79.50
18103;DHT22;9178;51.120;6.192;2022-08-14T09:05:33;30.80;79.20
18103;DHT22;9178;51.120;6.192;2022-08-14T09:08:12;30.70;79.00
18103;DHT22;9178;51.120;6.192;2022-08-14T09:10:39;30.60;79.60
18103;DHT22;9178;51.120;6.192;2022-08-14T09:13:06;30.50;77.40
18103;DHT22;9178;51.120;6.192;2022-08-14T09:15:36;30.40;78.80
18103;DHT22;9178;51.120;6.192;2022-08-14T09:18:03;30.30;78.00
18103;DHT22;9178;51.120;6.192;2022-08-14T09:20:31;30.30;79.00
18103;DHT22;9178;51.120;6.192;2022-08-14T09:22:58;30.20;77.70
18103;DHT22;9178;51.120;6.192;2022-08-14T09:25:26;30.20;76.50
18103;DHT22;9178;51.120;6.192;2022-08-14T09:27:54;30.10;75.50
18103;DHT22;9178;51.120;6.192;2022-08-14T09:30:21;30.10;75.90
18103;DHT22;9178;51.120;6.192;2022-08-14T09:33:13;30.00;75.50
18103;DHT22;9178;51.120;6.192;2022-08-14T09:35:50;30.00;76.20
18103;DHT22;9178;51.120;6.192;2022-08-14T09:38:25;29.90;73.40
18103;DHT22;9178;51.120;6.192;2022-08-14T09:41:00;29.80;74.50
18103;DHT22;9178;51.120;6.192;2022-08-14T09:43:42;29.80;74.40
18103;DHT22;9178;51.120;6.192;2022-08-14T09:46:10;29.60;71.50
18103;DHT22;9178;51.120;6.192;2022-08-14T09:48:37;29.60;70.90
18103;DHT22;9178;51.120;6.192;2022-08-14T09:51:07;29.60;71.60
18103;DHT22;9178;51.120;6.192;2022-08-14T09:53:59;29.70;71.10
18103;DHT22;9178;51.120;6.192;2022-08-14T09:56:27;29.80;70.80
18103;DHT22;9178;51.120;6.192;2022-08-14T09:58:57;29.90;73.00
18103;DHT22;9178;51.120;6.192;2022-08-14T10:01:35;30.00;70.70
18103;DHT22;9178;51.120;6.192;2022-08-14T10:04:08;30.10;68.60
18103;DHT22;9178;51.120;6.192;2022-08-14T10:06:43;30.10;71.30
18103;DHT22;9178;51.120;6.192;2022-08-14T10:09:10;30.50;70.20
18103;DHT22;9178;51.120;6.192;2022-08-14T10:11:40;30.90;64.80
18103;DHT22;9178;51.120;6.192;2022-08-14T10:14:14;31.30;65.90
18103;DHT22;9178;51.120;6.192;2022-08-14T10:16:44;31.70;62.80
18103;DHT22;9178;51.120;6.192;2022-08-14T10:19:12;31.80;62.50
18103;DHT22;9178;51.120;6.192;2022-08-14T10:21:42;32.10;65.30
18103;DHT22;9178;51.120;6.192;2022-08-14T10:24:22;32.70;62.90
18103;DHT22;9178;51.120;6.192;2022-08-14T10:26:54;33.40;59.20
18103;DHT22;9178;51.120;6.192;2022-08-14T10:29:32;33.90;58.60
18103;DHT22;9178;51.120;6.192;2022-08-14T10:31:59;34.30;57.70
18103;DHT22;9178;51.120;6.192;2022-08-14T10:34:31;34.90;56.80
18103;DHT22;9178;51.120;6.192;2022-08-14T10:37:02;35.40;56.70
18103;DHT22;9178;51.120;6.192;2022-08-14T10:39:30;36.00;53.60
18103;DHT22;9178;51.120;6.192;2022-08-14T10:42:02;36.40;51.50
18103;DHT22;9178;51.120;6.192;2022-08-14T10:44:32;37.10;52.20
18103;DHT22;9178;51.120;6.192;2022-08-14T10:47:00;37.70;50.90
18103;DHT22;9178;51.120;6.192;2022-08-14T10:49:33;38.00;51.10
18103;DHT22;9178;51.120;6.192;2022-08-14T10:52:02;38.20;45.10
18103;DHT22;9178;51.120;6.192;2022-08-14T10:54:35;38.20;45.20
18103;DHT22;9178;51.120;6.192;2022-08-14T10:57:17;38.40;46.00
18103;DHT22;9178;51.120;6.192;2022-08-14T10:59:47;38.50;46.20
18103;DHT22;9178;51.120;6.192;2022-08-14T11:02:18;39.00;47.10
18103;DHT22;9178;51.120;6.192;2022-08-14T11:04:57;39.50;44.80
18103;DHT22;9178;51.120;6.192;2022-08-14T11:07:24;39.70;42.30
18103;DHT22;9178;51.120;6.192;2022-08-14T11:09:53;39.60;42.30
18103;DHT22;9178;51.120;6.192;2022-08-14T11:12:22;39.70;40.90
18103;DHT22;9178;51.120;6.192;2022-08-14T11:14:52;39.50;42.90
18103;DHT22;9178;51.120;6.192;2022-08-14T11:17:20;39.60;41.20
18103;DHT22;9178;51.120;6.192;2022-08-14T11:19:48;39.50;40.20
18103;DHT22;9178;51.120;6.192;2022-08-14T11:22:16;39.00;42.10
18103;DHT22;9178;51.120;6.192;2022-08-14T11:24:45;38.70;42.00
18103;DHT22;9178;51.120;6.192;2022-08-14T11:27:13;38.50;41.30
18103;DHT22;9178;51.120;6.192;2022-08-14T11:29:44;38.40;40.80
18103;DHT22;9178;51.120;6.192;2022-08-14T11:32:13;38.60;41.50
18103;DHT22;9178;51.120;6.192;2022-08-14T11:34:40;38.90;40.80
18103;DHT22;9178;51.120;6.192;2022-08-14T11:37:08;39.40;42.30
18103;DHT22;9178;51.120;6.192;2022-08-14T11:39:35;39.80;40.00
18103;DHT22;9178;51.120;6.192;2022-08-14T11:42:03;39.80;38.50
18103;DHT22;9178;51.120;6.192;2022-08-14T11:44:30;40.00;39.50
18103;DHT22;9178;51.120;6.192;2022-08-14T11:47:00;40.30;40.10
18103;DHT22;9178;51.120;6.192;2022-08-14T11:49:28;40.70;38.50
18103;DHT22;9178;51.120;6.192;2022-08-14T11:51:56;40.70;37.20
18103;DHT22;9178;51.120;6.192;2022-08-14T11:54:23;40.70;38.10
18103;DHT22;9178;51.120;6.192;2022-08-14T11:56:50;40.70;37.40
18103;DHT22;9178;51.120;6.192;2022-08-14T11:59:19;40.80;37.30
18103;DHT22;9178;51.120;6.192;2022-08-14T12:01:47;40.70;39.40
18103;DHT22;9178;51.120;6.192;2022-08-14T12:04:18;40.90;37.80
18103;DHT22;9178;51.120;6.192;2022-08-14T12:06:49;41.10;37.30
18103;DHT22;9178;51.120;6.192;2022-08-14T12:09:27;40.90;37.50
18103;DHT22;9178;51.120;6.192;2022-08-14T12:11:55;40.80;38.10
18103;DHT22;9178;51.120;6.192;2022-08-14T12:14:22;40.60;37.40
18103;DHT22;9178;51.120;6.192;2022-08-14T12:17:01;40.30;37.60
18103;DHT22;9178;51.120;6.192;2022-08-14T12:19:46;39.70;37.60
18103;DHT22;9178;51.120;6.192;2022-08-14T12:22:13;39.10;37.10
18103;DHT22;9178;51.120;6.192;2022-08-14T12:24:41;38.50;37.60
18103;DHT22;9178;51.120;6.192;2022-08-14T12:27:09;37.90;37.80
18103;DHT22;9178;51.120;6.192;2022-08-14T12:29:37;37.50;38.30
18103;DHT22;9178;51.120;6.192;2022-08-14T12:32:07;37.20;39.20
18103;DHT22;9178;51.120;6.192;2022-08-14T12:34:35;37.00;40.80
18103;DHT22;9178;51.120;6.192;2022-08-14T12:37:04;36.90;40.20
18103;DHT22;9178;51.120;6.192;2022-08-14T12:39:31;36.60;40.00
18103;DHT22;9178;51.120;6.192;2022-08-14T12:41:58;36.30;41.00
18103;DHT22;9178;51.120;6.192;2022-08-14T12:44:31;36.10;40.30
18103;DHT22;9178;51.120;6.192;2022-08-14T12:47:07;35.70;41.00
18103;DHT22;9178;51.120;6.192;2022-08-14T12:49:47;35.50;40.90
18103;DHT22;9178;51.120;6.192;2022-08-14T12:52:26;35.40;40.70
18103;DHT22;9178;51.120;6.192;2022-08-14T12:54:57;35.40;40.50
18103;DHT22;9178;51.120;6.192;2022-08-14T12:57:32;35.30;42.50
18103;DHT22;9178;51.120;6.192;2022-08-14T13:00:05;35.40;41.90
18103;DHT22;9178;51.120;6.192;2022-08-14T13:02:37;35.30;40.40
18103;DHT22;9178;51.120;6.192;2022-08-14T13:05:06;35.50;40.80
18103;DHT22;9178;51.120;6.192;2022-08-14T13:07:35;36.00;43.20
18103;DHT22;9178;51.120;6.192;2022-08-14T13:10:05;36.80;41.60
18103;DHT22;9178;51.120;6.192;2022-08-14T13:12:36;37.50;39.50
18103;DHT22;9178;51.120;6.192;2022-08-14T13:15:05;37.80;39.30
18103;DHT22;9178;51.120;6.192;2022-08-14T13:17:39;37.60;38.20
18103;DHT22;9178;51.120;6.192;2022-08-14T13:20:09;37.40;39.00
18103;DHT22;9178;51.120;6.192;2022-08-14T13:22:39;37.10;39.90
18103;DHT22;9178;51.120;6.192;2022-08-14T13:25:11;36.90;39.20
18103;DHT22;9178;51.120;6.192;2022-08-14T13:27:39;36.90;39.80
18103;DHT22;9178;51.120;6.192;2022-08-14T13:30:09;37.10;39.20
18103;DHT22;9178;51.120;6.192;2022-08-14T13:32:37;37.60;40.30
18103;DHT22;9178;51.120;6.192;2022-08-14T13:35:05;38.10;43.00
18103;DHT22;9178;51.120;6.192;2022-08-14T13:37:34;38.70;39.60
18103;DHT22;9178;51.120;6.192;2022-08-14T13:40:02;38.90;37.70
18103;DHT22;9178;51.120;6.192;2022-08-14T13:42:30;39.00;38.10
18103;DHT22;9178;51.120;6.192;2022-08-14T13:44:59;39.10;37.80
18103;DHT22;9178;51.120;6.192;2022-08-14T13:47:28;38.90;37.00
18103;DHT22;9178;51.120;6.192;2022-08-14T13:49:59;38.60;38.20
18103;DHT22;9178;51.120;6.192;2022-08-14T13:52:29;38.50;37.20
18103;DHT22;9178;51.120;6.192;2022-08-14T13:55:05;38.60;38.30
18103;DHT22;9178;51.120;6.192;2022-08-14T13:57:32;38.70;37.30
18103;DHT22;9178;51.120;6.192;2022-08-14T14:00:03;38.40;39.00
18103;DHT22;9178;51.120;6.192;2022-08-14T14:02:31;38.20;40.60
18103;DHT22;9178;51.120;6.192;2022-08-14T14:05:08;38.40;42.10
18103;DHT22;9178;51.120;6.192;2022-08-14T14:07:37;38.50;41.60
18103;DHT22;9178;51.120;6.192;2022-08-14T14:10:07;38.70;39.40
18103;DHT22;9178;51.120;6.192;2022-08-14T14:12:36;38.70;37.50
18103;DHT22;9178;51.120;6.192;2022-08-14T14:15:05;38.60;37.10
18103;DHT22;9178;51.120;6.192;2022-08-14T14:17:34;38.20;37.40
18103;DHT22;9178;51.120;6.192;2022-08-14T14:20:03;38.10;38.10
18103;DHT22;9178;51.120;6.192;2022-08-14T14:22:30;38.10;39.30
18103;DHT22;9178;51.120;6.192;2022-08-14T14:24:57;37.80;38.00
18103;DHT22;9178;51.120;6.192;2022-08-14T14:27:27;37.50;39.20
18103;DHT22;9178;51.120;6.192;2022-08-14T14:29:57;37.50;41.00
18103;DHT22;9178;51.120;6.192;2022-08-14T14:32:29;37.60;38.20
18103;DHT22;9178;51.120;6.192;2022-08-14T14:34:59;38.10;38.20
18103;DHT22;9178;51.120;6.192;2022-08-14T14:37:27;38.50;36.60
18103;DHT22;9178;51.120;6.192;2022-08-14T14:39:55;38.50;37.70
18103;DHT22;9178;51.120;6.192;2022-08-14T14:42:26;38.80;37.30
18103;DHT22;9178;51.120;6.192;2022-08-14T14:45:01;39.00;38.50
18103;DHT22;9178;51.120;6.192;2022-08-14T14:47:31;39.20;37.00
18103;DHT22;9178;51.120;6.192;2022-08-14T14:49:59;39.20;37.30
18103;DHT22;9178;51.120;6.192;2022-08-14T14:52:28;39.40;37.00
18103;DHT22;9178;51.120;6.192;2022-08-14T14:54:58;39.00;36.70
18103;DHT22;9178;51.120;6.192;2022-08-14T14:57:32;39.00;37.40
18103;DHT22;9178;51.120;6.192;2022-08-14T14:59:59;39.20;37.40
18103;DHT22;9178;51.120;6.192;2022-08-14T15:02:35;39.20;37.20
18103;DHT22;9178;51.120;6.192;2022-08-14T15:05:03;39.20;38.30
18103;DHT22;9178;51.120;6.192;2022-08-14T15:07:33;39.20;37.40
18103;DHT22;9178;51.120;6.192;2022-08-14T15:10:00;39.40;37.60
18103;DHT22;9178;51.120;6.192;2022-08-14T15:12:31;39.60;38.60
18103;DHT22;9178;51.120;6.192;2022-08-14T15:14:58;39.50;36.40
18103;DHT22;9178;51.120;6.192;2022-08-14T15:17:25;39.30;35.90
18103;DHT22;9178;51.120;6.192;2022-08-14T15:19:58;38.60;36.30
18103;DHT22;9178;51.120;6.192;2022-08-14T15:22:25;37.80;38.00
18103;DHT22;9178;51.120;6.192;2022-08-14T15:24:53;37.60;38.10
18103;DHT22;9178;51.120;6.192;2022-08-14T15:27:20;37.40;38.70
18103;DHT22;9178;51.120;6.192;2022-08-14T15:29:49;37.10;38.20
18103;DHT22;9178;51.120;6.192;2022-08-14T15:32:16;36.60;40.40
18103;DHT22;9178;51.120;6.192;2022-08-14T15:34:43;36.30;44.30
18103;DHT22;9178;51.120;6.192;2022-08-14T15:37:11;36.20;41.40
18103;DHT22;9178;51.120;6.192;2022-08-14T15:39:40;36.10;44.30
18103;DHT22;9178;51.120;6.192;2022-08-14T15:42:08;35.80;41.80
18103;DHT22;9178;51.120;6.192;2022-08-14T15:44:35;35.50;43.80
18103;DHT22;9178;51.120;6.192;2022-08-14T15:47:05;35.20;45.60
18103;DHT22;9178;51.120;6.192;2022-08-14T15:49:34;35.10;46.30
18103;DHT22;9178;51.120;6.192;2022-08-14T15:52:03;34.90;45.50
18103;DHT22;9178;51.120;6.192;2022-08-14T15:54:31;34.90;44.20
18103;DHT22;9178;51.120;6.192;2022-08-14T15:56:59;34.90;43.70
18103;DHT22;9178;51.120;6.192;2022-08-14T15:59:27;34.80;42.50